Time;durP1;ratioP1;P1;durP2;ratioP2;P2;SDS_P1;SDS_P2;PMS_P1;PMS_P2;Temp;Humidity;BMP_temperature;BMP_pressure;BME280_temperature;BME280_humidity;BME280_pressure;Samples;Min_cycle;Max_cycle;Signal;HPM_P1;HPM_P2
2022/12/01 05:31:10;;;;;;;14.73;7.10;;;5.20;78.80;;;;;;5568323;23;19949;-77
2022/12/01 05:33:36;;;;;;;13.63;7.05;;;5.30;78.80;;;;;;4940466;28;20119;-77
2022/12/01 05:36:01;;;;;;;12.40;7.47;;;5.30;78.80;;;;;;4941642;29;20067;-76
2022/12/01 05:38:27;;;;;;;20.27;8.85;;;5.20;78.80;;;;;;4939007;29;20103;-77
2022/12/01 05:40:54;;;;;;;15.65;7.85;;;5.30;78.70;;;;;;4937878;29;20466;-75
2022/12/01 05:43:22;;;;;;;13.85;8.02;;;5.30;78.80;;;;;;4924605;29;20028;-75
2022/12/01 05:45:48;;;;;;;14.45;7.25;;;5.30;78.80;;;;;;4903067;29;20032;-74
2022/12/01 05:48:15;;;;;;;9.32;6.68;;;5.20;78.80;;;;;;4937190;29;20023;-75
2022/12/01 05:50:41;;;;;;;12.65;7.78;;;5.30;78.80;;;;;;4938810;29;20036;-74
2022/12/01 05:53:09;;;;;;;11.98;7.43;;;5.20;78.70;;;;;;4935684;29;20043;-77
2022/12/01 05:55:35;;;;;;;13.00;6.30;;;5.20;78.70;;;;;;4938147;29;20040;-79
2022/12/01 05:58:03;;;;;;;15.80;6.97;;;5.20;78.60;;;;;;4938820;29;20519;-75
2022/12/01 06:00:29;;;;;;;13.25;7.80;;;5.20;78.70;;;;;;4920615;29;20075;-80
2022/12/01 06:02:54;;;;;;;14.02;7.30;;;5.20;78.70;;;;;;4915565;29;20032;-76
2022/12/01 06:05:20;;;;;;;17.55;8.23;;;5.20;78.60;;;;;;4931464;29;20028;-77
2022/12/01 06:07:46;;;;;;;14.25;7.47;;;5.20;78.70;;;;;;4908544;29;20043;-76
2022/12/01 06:10:12;;;;;;;13.25;7.55;;;5.20;78.60;;;;;;4903203;29;20047;-76
2022/12/01 06:12:38;;;;;;;15.13;8.23;;;5.20;78.60;;;;;;4906105;29;20040;-77
2022/12/01 06:15:07;;;;;;;15.00;8.35;;;5.20;78.60;;;;;;4927880;29;20077;-77
2022/12/01 06:17:33;;;;;;;17.23;8.38;;;5.20;78.60;;;;;;4921540;29;20031;-77
2022/12/01 06:19:59;;;;;;;12.50;7.10;;;5.20;78.70;;;;;;4922030;29;20036;-78
2022/12/01 06:22:24;;;;;;;15.82;8.07;;;5.20;78.80;;;;;;4938694;29;20083;-80
2022/12/01 06:24:50;;;;;;;14.48;8.05;;;5.20;78.80;;;;;;4937135;29;20028;-82
2022/12/01 06:27:16;;;;;;;16.70;7.82;;;5.10;78.90;;;;;;4921783;29;20036;-82
2022/12/01 06:29:41;;;;;;;14.60;7.28;;;5.10;79.00;;;;;;4938876;29;20047;-78
2022/12/01 06:32:09;;;;;;;10.52;7.32;;;5.10;79.10;;;;;;4937053;29;20555;-77
2022/12/01 06:34:35;;;;;;;18.15;7.32;;;5.10;79.00;;;;;;4904393;29;20052;-77
2022/12/01 06:37:01;;;;;;;15.20;7.60;;;5.20;79.00;;;;;;4928850;29;20047;-78
2022/12/01 06:39:26;;;;;;;16.33;8.32;;;5.20;78.90;;;;;;4902272;29;20135;-76
2022/12/01 06:41:52;;;;;;;12.40;6.28;;;5.20;78.80;;;;;;4919179;29;20035;-77
2022/12/01 06:44:17;;;;;;;13.45;8.38;;;5.20;78.70;;;;;;4918959;29;20024;-76
2022/12/01 06:46:43;;;;;;;16.15;7.57;;;5.20;78.70;;;;;;4923280;29;20035;-77
2022/12/01 06:49:12;;;;;;;18.52;9.10;;;5.10;78.70;;;;;;4938188;29;20023;-76
2022/12/01 06:51:39;;;;;;;13.00;6.95;;;5.10;79.00;;;;;;4932112;29;20111;-76
2022/12/01 06:54:04;;;;;;;17.05;8.63;;;5.10;79.00;;;;;;4922872;29;20040;-75
2022/12/01 06:56:30;;;;;;;16.25;10.35;;;5.10;79.00;;;;;;4903352;29;20035;-76
2022/12/01 06:58:56;;;;;;;15.90;8.45;;;5.10;79.10;;;;;;4919092;29;20031;-76
2022/12/01 07:01:22;;;;;;;14.00;8.43;;;5.10;79.20;;;;;;4930423;29;20038;-76
2022/12/01 07:03:51;;;;;;;14.82;8.45;;;5.10;79.10;;;;;;4920171;29;20028;-76
2022/12/01 07:06:16;;;;;;;13.95;8.38;;;5.10;79.10;;;;;;4908982;29;20248;-76
2022/12/01 07:08:43;;;;;;;19.60;8.88;;;5.00;79.20;;;;;;4937443;29;20119;-76
2022/12/01 07:11:11;;;;;;;16.58;7.72;;;5.00;79.20;;;;;;4937512;29;20031;-76
2022/12/01 07:13:38;;;;;;;12.82;6.22;;;5.00;79.10;;;;;;4932844;29;20043;-77
2022/12/01 07:16:05;;;;;;;16.05;8.77;;;5.00;79.30;;;;;;4935484;29;20055;-75
2022/12/01 07:18:32;;;;;;;13.32;6.93;;;5.10;79.30;;;;;;4913600;29;20036;-83
2022/12/01 07:21:02;;;;;;;13.63;8.88;;;5.00;79.20;;;;;;4924097;29;20404;-77
2022/12/01 07:23:28;;;;;;;;;;;5.00;79.20;;;;;;4907598;29;20032;-77
2022/12/01 07:26:14;;;;;;;16.73;8.32;;;5.10;79.10;;;;;;4918723;29;20280;-77
2022/12/01 07:28:41;;;;;;;18.40;9.77;;;5.00;79.10;;;;;;4918956;29;20115;-77
2022/12/01 07:31:08;;;;;;;14.68;8.73;;;5.00;78.90;;;;;;4918638;29;20055;-76
2022/12/01 07:33:34;;;;;;;12.68;7.43;;;5.00;79.00;;;;;;4937826;29;20066;-77
2022/12/01 07:36:00;;;;;;;16.10;8.38;;;5.00;79.20;;;;;;4922357;29;20035;-77
2022/12/01 07:38:30;;;;;;;17.45;8.57;;;5.00;79.10;;;;;;4938048;29;20042;-76
2022/12/01 07:41:05;;;;;;;13.10;6.85;;;5.00;79.00;;;;;;4933353;29;20027;-77
2022/12/01 07:43:32;;;;;;;17.23;8.07;;;5.00;79.10;;;;;;4937568;29;20518;-77
2022/12/01 07:46:08;;;;;;;13.15;7.95;;;4.90;79.00;;;;;;4936644;29;20496;-76
2022/12/01 07:48:34;;;;;;;15.10;7.50;;;4.90;79.10;;;;;;4936785;29;20023;-76
2022/12/01 07:51:00;;;;;;;13.05;7.88;;;4.90;79.10;;;;;;4938121;29;20035;-77
2022/12/01 07:53:26;;;;;;;11.52;7.25;;;5.00;79.20;;;;;;4920700;29;20032;-76
2022/12/01 07:55:51;;;;;;;20.67;8.48;;;4.90;79.00;;;;;;4937671;29;20036;-77
2022/12/01 07:58:17;;;;;;;15.75;8.85;;;5.00;79.00;;;;;;4920818;29;20035;-77
2022/12/01 08:00:42;;;;;;;19.38;8.73;;;5.00;79.00;;;;;;4904809;29;20597;-77
2022/12/01 08:03:08;;;;;;;15.05;7.55;;;5.00;78.90;;;;;;4929466;29;20491;-77
2022/12/01 08:05:34;;;;;;;15.57;9.55;;;5.00;78.90;;;;;;4937965;29;20059;-77
2022/12/01 08:08:00;;;;;;;18.65;8.85;;;5.00;78.90;;;;;;4937515;29;20042;-76
2022/12/01 08:10:26;;;;;;;13.73;7.65;;;5.00;78.90;;;;;;4939442;29;20450;-77
2022/12/01 08:12:51;;;;;;;15.82;9.25;;;5.00;79.10;;;;;;4941535;29;20039;-77
2022/12/01 08:15:17;;;;;;;15.45;7.45;;;5.00;79.00;;;;;;4940945;29;20070;-77
2022/12/01 08:17:43;;;;;;;17.35;8.90;;;5.00;79.00;;;;;;4941565;29;20039;-77
2022/12/01 08:20:08;;;;;;;16.67;7.88;;;5.00;79.00;;;;;;4938337;29;20032;-77
2022/12/01 08:22:34;;;;;;;18.00;7.80;;;5.00;79.00;;;;;;4937980;29;20046;-77
2022/12/01 08:25:00;;;;;;;15.68;8.70;;;5.00;79.00;;;;;;4922261;29;20028;-76
2022/12/01 08:27:25;;;;;;;14.35;8.18;;;5.00;78.90;;;;;;4922783;29;20031;-76
2022/12/01 08:29:51;;;;;;;17.48;8.98;;;5.10;78.80;;;;;;4920933;29;20395;-77
2022/12/01 08:32:17;;;;;;;19.63;9.43;;;5.00;78.90;;;;;;4919308;29;20055;-76
2022/12/01 08:34:43;;;;;;;18.73;9.88;;;4.90;79.00;;;;;;4923593;29;20122;-76
2022/12/01 08:37:08;;;;;;;20.38;9.70;;;5.00;79.00;;;;;;4941135;29;20058;-77
2022/12/01 08:39:34;;;;;;;17.02;8.50;;;5.00;79.00;;;;;;4940844;29;20035;-77
2022/12/01 08:41:59;;;;;;;22.85;9.95;;;4.90;79.20;;;;;;4940591;29;20488;-77
2022/12/01 08:44:25;;;;;;;21.17;10.00;;;4.90;79.40;;;;;;4940991;29;20028;-77
2022/12/01 08:46:51;;;;;;;15.55;8.70;;;4.90;79.30;;;;;;4940930;29;20074;-77
2022/12/01 08:49:16;;;;;;;17.45;9.23;;;4.90;79.40;;;;;;4940335;29;20043;-77
2022/12/01 08:51:42;;;;;;;17.73;10.38;;;4.90;79.40;;;;;;4923617;29;20027;-77
2022/12/01 08:54:10;;;;;;;25.40;12.45;;;5.00;79.40;;;;;;4940226;29;20028;-77
2022/12/01 08:56:40;;;;;;;17.73;10.13;;;5.00;79.40;;;;;;4923487;29;20038;-77
2022/12/01 08:59:06;;;;;;;20.30;9.13;;;5.00;79.50;;;;;;4940598;29;20074;-77
2022/12/01 09:01:32;;;;;;;21.23;9.25;;;5.00;79.50;;;;;;4940113;29;20118;-77
2022/12/01 09:04:07;;;;;;;21.30;9.88;;;4.90;79.50;;;;;;4940506;29;20028;-78
2022/12/01 09:06:39;;;;;;;20.35;9.90;;;5.00;79.60;;;;;;4940684;29;20083;-77
2022/12/01 09:09:05;;;;;;;20.98;11.23;;;5.10;79.60;;;;;;4940131;29;20032;-77
2022/12/01 09:11:31;;;;;;;20.67;9.27;;;5.10;79.60;;;;;;4939719;29;20082;-77
2022/12/01 09:13:58;;;;;;;14.75;9.63;;;5.20;79.40;;;;;;4923301;29;20031;-77
2022/12/01 09:16:24;;;;;;;17.40;10.77;;;5.20;79.40;;;;;;4940293;29;20027;-77
2022/12/01 09:18:49;;;;;;;21.80;10.88;;;5.20;79.40;;;;;;4940428;29;20039;-77
2022/12/01 09:21:21;;;;;;;26.63;12.07;;;5.30;79.60;;;;;;4939112;29;20024;-77
2022/12/01 09:23:47;;;;;;;21.52;10.00;;;5.30;79.50;;;;;;4940191;29;20016;-77
2022/12/01 09:26:17;;;;;;;14.82;10.18;;;5.40;79.50;;;;;;4940113;29;20111;-77
2022/12/01 09:28:47;;;;;;;20.15;10.48;;;5.40;79.60;;;;;;4939022;29;20019;-77
2022/12/01 09:31:14;;;;;;;23.25;10.38;;;5.40;79.70;;;;;;4921013;29;20055;-77
2022/12/01 09:33:39;;;;;;;23.15;10.85;;;5.50;79.70;;;;;;4935591;29;20032;-78
2022/12/01 09:36:06;;;;;;;22.38;10.48;;;5.50;79.80;;;;;;4922875;29;20030;-77
2022/12/01 09:38:34;;;;;;;17.00;9.88;;;5.50;79.90;;;;;;4938093;29;20035;-77
2022/12/01 09:41:14;;;;;;;20.50;9.88;;;5.60;79.90;;;;;;4955833;29;20479;-77
2022/12/01 09:43:45;;;;;;;18.33;8.67;;;5.60;79.90;;;;;;4934127;29;20031;-78
2022/12/01 09:46:27;;;;;;;15.77;8.43;;;5.70;79.90;;;;;;4904696;29;20288;-77
2022/12/01 09:48:56;;;;;;;16.02;8.25;;;6.00;80.10;;;;;;4921327;29;20028;-77
2022/12/01 09:51:24;;;;;;;17.10;8.93;;;6.10;79.80;;;;;;4925502;29;20514;-77
2022/12/01 09:53:57;;;;;;;21.10;10.00;;;6.20;79.50;;;;;;4938347;29;20118;-78
2022/12/01 09:56:26;;;;;;;17.90;8.50;;;6.20;79.40;;;;;;4921783;29;20032;-77
2022/12/01 09:58:55;;;;;;;17.90;8.55;;;6.10;78.60;;;;;;4922441;29;20031;-78
2022/12/01 10:01:31;;;;;;;17.70;9.18;;;5.90;79.40;;;;;;4939333;29;20062;-77
2022/12/01 10:04:02;;;;;;;20.08;8.25;;;5.90;78.60;;;;;;4939005;29;20024;-78
2022/12/01 10:06:42;;;;;;;15.93;8.10;;;5.70;79.10;;;;;;4939427;29;20055;-77
2022/12/01 10:09:26;;;;;;;16.83;9.65;;;5.70;79.70;;;;;;4922287;29;20027;-77
2022/12/01 10:11:59;;;;;;;21.88;10.70;;;5.80;79.80;;;;;;4938719;29;20042;-77
2022/12/01 10:14:31;;;;;;;17.55;11.35;;;5.90;79.80;;;;;;4941341;29;20030;-77
2022/12/01 10:16:59;;;;;;;20.58;11.60;;;5.90;79.60;;;;;;4919043;29;20032;-76
2022/12/01 10:19:38;;;;;;;19.45;10.30;;;5.90;79.40;;;;;;4903302;29;20039;-76
2022/12/01 10:22:13;;;;;;;21.02;8.35;;;5.90;79.50;;;;;;4903106;29;20046;-76
2022/12/01 10:25:04;;;;;;;17.10;8.50;;;5.90;79.40;;;;;;4937983;29;20028;-77
2022/12/01 10:27:50;;;;;;;12.20;7.07;;;5.90;79.20;;;;;;4921382;29;20027;-78
2022/12/01 10:30:19;;;;;;;17.63;7.90;;;5.90;79.40;;;;;;4938959;29;20035;-77
2022/12/01 10:33:16;;;;;;;15.15;7.28;;;5.90;79.00;;;;;;4921848;29;20102;-77
2022/12/01 10:35:42;;;;;;;11.35;6.95;;;5.90;79.00;;;;;;4916523;29;20074;-77
2022/12/01 10:38:33;;;;;;;20.05;8.38;;;5.90;78.90;;;;;;4938932;29;20031;-77
2022/12/01 10:41:01;;;;;;;16.48;8.02;;;5.90;79.20;;;;;;4938679;29;20055;-77
2022/12/01 10:43:49;;;;;;;18.98;8.15;;;6.00;79.00;;;;;;4938327;29;20024;-77
2022/12/01 10:46:18;;;;;;;16.20;7.07;;;6.00;79.30;;;;;;4938831;29;20031;-77
2022/12/01 10:48:58;;;;;;;14.25;6.22;;;6.10;79.30;;;;;;4938303;29;20043;-77
2022/12/01 10:51:26;;;;;;;16.63;7.28;;;6.10;79.30;;;;;;4921601;29;20398;-76
2022/12/01 10:54:19;;;;;;;17.75;7.75;;;6.20;79.50;;;;;;4921669;29;20041;-77
2022/12/01 10:56:47;;;;;;;20.73;8.02;;;6.20;79.70;;;;;;4925615;29;20044;-77
2022/12/01 10:59:34;;;;;;;21.48;8.95;;;6.20;79.60;;;;;;4902737;29;20032;-77
2022/12/01 11:02:02;;;;;;;22.55;9.82;;;6.30;79.60;;;;;;4919748;29;20028;-77
2022/12/01 11:04:45;;;;;;;19.95;7.35;;;6.30;79.80;;;;;;4926062;29;20488;-77
2022/12/01 11:07:22;;;;;;;12.80;6.85;;;6.40;79.80;;;;;;4919592;29;20030;-77
2022/12/01 11:10:13;;;;;;;20.38;9.23;;;6.40;79.90;;;;;;4921253;29;20021;-77
2022/12/01 11:12:39;;;;;;;21.45;10.68;;;6.40;79.90;;;;;;4919290;29;20024;-78
2022/12/01 11:15:05;;;;;;;23.45;9.43;;;6.60;79.90;;;;;;4919554;29;20039;-77
2022/12/01 11:17:36;;;;;;;14.75;8.10;;;6.60;80.00;;;;;;4919368;29;20028;-77
2022/12/01 11:20:34;;;;;;;18.83;9.32;;;6.60;80.10;;;;;;4902721;29;20036;-77
2022/12/01 11:23:08;;;;;;;14.05;6.68;;;6.70;80.10;;;;;;4926900;29;20032;-77
2022/12/01 11:25:34;;;;;;;17.48;8.45;;;6.70;80.10;;;;;;4938248;29;20105;-77
2022/12/01 11:28:01;;;;;;;21.08;8.50;;;6.70;80.20;;;;;;4921045;29;20460;-77
2022/12/01 11:30:29;;;;;;;19.27;7.35;;;6.80;80.50;;;;;;4938206;29;20094;-78
2022/12/01 11:33:03;;;;;;;20.17;10.02;;;6.80;80.40;;;;;;4920574;29;20042;-77
2022/12/01 11:35:31;;;;;;;20.90;8.27;;;6.90;80.30;;;;;;4938262;29;20408;-77
2022/12/01 11:38:00;;;;;;;19.60;8.73;;;6.90;80.60;;;;;;4938107;29;20036;-79
2022/12/01 11:40:43;;;;;;;17.38;8.00;;;7.00;80.50;;;;;;4937690;29;20070;-78
2022/12/01 11:43:27;;;;;;;21.58;7.32;;;7.10;80.40;;;;;;4938180;29;20110;-76
2022/12/01 11:45:55;;;;;;;21.67;10.15;;;7.20;80.10;;;;;;4922911;29;20035;-76
2022/12/01 11:48:29;;;;;;;23.40;8.98;;;7.20;80.20;;;;;;4925997;29;20051;-76
2022/12/01 11:51:09;;;;;;;20.30;8.25;;;7.30;80.00;;;;;;4924361;29;20039;-77
2022/12/01 11:53:39;;;;;;;26.88;9.13;;;7.30;79.80;;;;;;4938837;29;20028;-76
2022/12/01 11:56:23;;;;;;;22.65;9.07;;;7.30;79.80;;;;;;4941157;29;20027;-77
2022/12/01 11:58:55;;;;;;;24.83;9.38;;;7.40;80.10;;;;;;4924586;29;20042;-76
2022/12/01 12:01:39;;;;;;;20.67;8.45;;;7.50;80.00;;;;;;4941685;29;20030;-76
2022/12/01 12:04:16;;;;;;;25.85;8.18;;;7.60;79.90;;;;;;4924477;29;20084;-75
2022/12/01 12:07:06;;;;;;;24.92;8.60;;;7.70;79.80;;;;;;4905754;29;20436;-77
2022/12/01 12:09:35;;;;;;;21.58;8.38;;;7.80;79.70;;;;;;4931070;29;20028;-75
2022/12/01 12:12:06;;;;;;;21.73;9.10;;;7.70;79.60;;;;;;4924374;29;20459;-77
2022/12/01 12:14:38;;;;;;;18.58;8.68;;;7.80;79.70;;;;;;4924524;29;20054;-75
2022/12/01 12:17:36;;;;;;;20.88;9.80;;;7.90;79.80;;;;;;4940884;29;20087;-76
2022/12/01 12:20:04;;;;;;;22.73;9.45;;;8.00;79.50;;;;;;4943827;29;20040;-75
2022/12/01 12:22:55;;;;;;;21.05;8.70;;;8.00;79.50;;;;;;4935023;29;20024;-76
2022/12/01 12:25:31;;;;;;;22.85;9.45;;;8.00;79.30;;;;;;4941123;29;20480;-76
2022/12/01 12:28:34;;;;;;;20.88;8.82;;;8.00;79.40;;;;;;4924069;29;20032;-75
2022/12/01 12:31:18;;;;;;;21.88;10.48;;;8.00;79.40;;;;;;4904967;29;20081;-75
2022/12/01 12:34:02;;;;;;;31.20;10.52;;;8.10;79.50;;;;;;4937121;29;20055;-76
2022/12/01 12:36:54;;;;;;;32.85;11.93;;;8.10;79.40;;;;;;4920160;29;20043;-74
2022/12/01 12:39:41;;;;;;;30.25;10.70;;;8.00;79.50;;;;;;4914128;29;20416;-77
2022/12/01 12:42:18;;;;;;;26.60;10.95;;;8.00;79.90;;;;;;4920694;29;20050;-76
2022/12/01 12:45:25;;;;;;;31.42;11.75;;;8.20;79.70;;;;;;4923605;29;20036;-76
2022/12/01 12:48:06;;;;;;;22.85;9.75;;;8.20;79.50;;;;;;4903316;29;20047;-75
2022/12/01 12:50:43;;;;;;;;;;;8.30;79.60;;;;;;4923412;29;20040;-75
2022/12/01 12:53:18;;;;;;;28.25;12.63;;;8.30;79.50;;;;;;4928869;29;20370;-75
2022/12/01 12:55:48;;;;;;;34.00;13.60;;;8.30;79.60;;;;;;4940356;29;20028;-75
2022/12/01 12:58:34;;;;;;;31.73;11.43;;;8.30;79.60;;;;;;4939975;29;20030;-75
2022/12/01 13:01:10;;;;;;;32.90;11.75;;;8.30;79.50;;;;;;4923402;29;20032;-75
2022/12/01 13:03:59;;;;;;;28.02;12.18;;;8.20;79.50;;;;;;4939973;29;20508;-75
2022/12/01 13:06:35;;;;;;;28.15;12.13;;;8.30;79.70;;;;;;4923504;29;20027;-76
2022/12/01 13:09:26;;;;;;;31.35;11.77;;;8.20;79.70;;;;;;4940556;29;20074;-76
2022/12/01 13:12:21;;;;;;;37.90;13.38;;;8.30;79.80;;;;;;4922619;29;20059;-76
2022/12/01 13:14:58;;;;;;;30.25;13.57;;;8.30;79.70;;;;;;4940009;29;20505;-75
2022/12/01 13:17:37;;;;;;;28.33;10.82;;;8.30;79.70;;;;;;4940337;29;20028;-76
2022/12/01 13:20:05;;;;;;;30.13;12.82;;;8.30;79.80;;;;;;4940183;29;20028;-74
2022/12/01 13:22:33;;;;;;;27.48;12.55;;;8.30;79.80;;;;;;4940081;29;20031;-76
2022/12/01 13:25:03;;;;;;;27.38;11.27;;;8.40;79.70;;;;;;4923188;29;20035;-81
2022/12/01 13:27:34;;;;;;;25.48;10.68;;;8.30;79.70;;;;;;4922513;29;20135;-81
2022/12/01 13:29:59;;;;;;;29.00;12.60;;;8.40;79.90;;;;;;4940358;29;20042;-76
2022/12/01 13:32:34;;;;;;;25.23;12.40;;;8.40;79.70;;;;;;4939418;29;20048;-76
2022/12/01 13:35:04;;;;;;;29.27;11.43;;;8.50;79.80;;;;;;4940361;29;20035;-76
2022/12/01 13:37:38;;;;;;;35.38;13.20;;;8.50;79.60;;;;;;4940465;29;20024;-76
2022/12/01 13:40:26;;;;;;;26.48;11.05;;;8.50;79.60;;;;;;4942274;29;20036;-77
2022/12/01 13:43:22;;;;;;;20.55;10.40;;;8.50;79.70;;;;;;4920728;29;20037;-77
2022/12/01 13:45:48;;;;;;;23.70;12.32;;;8.50;79.60;;;;;;4903859;29;20024;-76
2022/12/01 13:48:35;;;;;;;23.85;9.80;;;8.60;79.60;;;;;;4934894;29;20024;-76
2022/12/01 13:51:02;;;;;;;27.50;11.30;;;8.60;79.70;;;;;;4906661;29;20480;-77
2022/12/01 13:53:34;;;;;;;25.75;11.98;;;8.60;79.70;;;;;;4920597;29;20032;-78
2022/12/01 13:56:03;;;;;;;25.98;11.73;;;8.70;79.90;;;;;;4905884;29;20103;-77
2022/12/01 13:58:32;;;;;;;25.02;12.02;;;8.60;79.90;;;;;;4929102;29;20024;-77
2022/12/01 14:01:19;;;;;;;21.50;11.48;;;8.60;79.70;;;;;;4939499;29;20036;-77
2022/12/01 14:04:10;;;;;;;25.77;11.43;;;8.70;79.70;;;;;;4939485;29;20099;-77
2022/12/01 14:06:45;;;;;;;23.50;9.85;;;8.70;79.70;;;;;;4920553;29;20115;-76
2022/12/01 14:09:22;;;;;;;22.92;10.32;;;8.70;79.60;;;;;;4920054;29;20651;-76
2022/12/01 14:12:02;;;;;;;22.50;10.45;;;8.70;79.50;;;;;;4937067;29;20032;-76
2022/12/01 14:14:36;;;;;;;20.65;10.30;;;8.80;79.50;;;;;;4939297;29;20119;-76
2022/12/01 14:17:02;;;;;;;22.20;9.90;;;8.80;79.40;;;;;;4938805;29;20122;-76
2022/12/01 14:19:54;;;;;;;25.10;9.98;;;8.80;79.30;;;;;;4939165;29;20090;-76
2022/12/01 14:22:34;;;;;;;18.77;8.75;;;8.80;79.40;;;;;;4935348;29;20059;-76
2022/12/01 14:25:01;;;;;;;21.85;9.55;;;8.80;79.20;;;;;;4914224;29;20024;-77
2022/12/01 14:27:40;;;;;;;19.17;9.25;;;8.80;79.20;;;;;;4938985;29;20059;-76
2022/12/01 14:33:43;;;;;;;17.50;8.93;;;8.80;78.50;;;;;;4929982;29;20107;-77
2022/12/01 14:36:22;;;;;;;16.60;8.45;;;8.90;77.70;;;;;;4934297;29;20035;-76
2022/12/01 14:38:52;;;;;;;19.30;8.48;;;8.90;77.40;;;;;;4902804;29;20520;-76
2022/12/01 14:41:38;;;;;;;15.95;7.95;;;8.90;77.30;;;;;;4919706;29;20527;-76
2022/12/01 14:44:29;;;;;;;15.98;7.88;;;8.90;77.20;;;;;;4890456;29;20040;-76
2022/12/01 14:47:12;;;;;;;16.42;8.70;;;8.90;77.10;;;;;;4915288;29;20070;-76
2022/12/01 14:49:41;;;;;;;16.88;7.88;;;8.90;77.10;;;;;;4919707;29;20012;-76
2022/12/01 14:52:22;;;;;;;18.65;9.50;;;8.90;77.10;;;;;;4919832;29;20087;-76
2022/12/01 14:54:48;;;;;;;17.73;8.18;;;8.90;76.90;;;;;;4920032;29;20024;-76
2022/12/01 14:57:19;;;;;;;20.27;9.38;;;8.90;76.50;;;;;;4902631;29;20063;-76
2022/12/01 14:59:45;;;;;;;18.77;9.10;;;9.00;76.60;;;;;;4902418;29;20024;-76
2022/12/01 15:02:10;;;;;;;24.02;8.40;;;8.90;76.30;;;;;;4905414;29;20031;-76
2022/12/01 15:05:21;;;;;;;13.13;6.78;;;8.90;76.40;;;;;;4938171;29;20027;-76
2022/12/01 15:07:53;;;;;;;12.85;6.60;;;8.90;76.40;;;;;;4934743;29;20118;-76
2022/12/01 15:10:34;;;;;;;15.02;7.15;;;8.90;76.30;;;;;;4938311;29;20038;-76
2022/12/01 15:13:20;;;;;;;12.82;6.68;;;8.80;76.00;;;;;;4917872;29;20552;-76
2022/12/01 15:15:51;;;;;;;11.70;6.32;;;8.90;75.90;;;;;;4902411;29;20051;-76
2022/12/01 15:18:36;;;;;;;11.30;6.50;;;8.90;75.70;;;;;;4919444;29;20029;-75
2022/12/01 15:21:29;;;;;;;10.85;5.93;;;8.80;75.90;;;;;;4937562;29;20122;-75
2022/12/01 15:24:19;;;;;;;14.95;6.47;;;8.80;76.00;;;;;;4938321;29;20024;-76
2022/12/01 15:26:46;;;;;;;14.77;6.38;;;8.80;75.80;;;;;;4920639;29;20024;-76
2022/12/01 15:29:27;;;;;;;11.77;5.85;;;8.80;75.70;;;;;;4936996;29;20034;-76
2022/12/01 15:32:01;;;;;;;16.00;6.68;;;8.80;75.60;;;;;;4930103;29;20056;-76
2022/12/01 15:34:37;;;;;;;12.30;5.15;;;8.70;75.60;;;;;;4938274;29;20079;-76
2022/12/01 15:37:06;;;;;;;12.20;6.45;;;8.70;75.40;;;;;;4938535;29;20035;-76
2022/12/01 15:39:41;;;;;;;13.30;6.13;;;8.70;75.60;;;;;;4937619;29;20670;-76
2022/12/01 15:42:20;;;;;;;13.48;6.00;;;8.70;75.90;;;;;;4938232;29;20023;-76
2022/12/01 15:45:16;;;;;;;12.48;6.82;;;8.60;75.80;;;;;;4920997;29;20059;-76
2022/12/01 15:47:44;;;;;;;10.07;6.22;;;8.60;76.00;;;;;;4938255;29;20391;-76
2022/12/01 15:50:25;;;;;;;10.70;6.80;;;8.60;76.10;;;;;;4926164;29;20035;-76
2022/12/01 15:52:51;;;;;;;12.43;6.60;;;8.50;76.00;;;;;;4938189;29;20396;-76
2022/12/01 15:55:27;;;;;;;11.45;6.05;;;8.50;76.20;;;;;;4923755;29;20051;-76
2022/12/01 15:57:53;;;;;;;13.02;6.45;;;8.40;76.20;;;;;;4919030;29;20028;-76
2022/12/01 16:00:19;;;;;;;7.65;4.65;;;8.40;76.10;;;;;;4919487;29;20040;-76
2022/12/01 16:02:56;;;;;;;11.05;5.60;;;8.30;76.10;;;;;;4926546;29;20032;-76
2022/12/01 16:05:29;;;;;;;14.65;6.50;;;8.30;76.00;;;;;;4916338;29;20027;-76
2022/12/01 16:07:55;;;;;;;10.07;5.25;;;8.20;75.80;;;;;;4937455;29;20032;-76
2022/12/01 16:11:05;;;;;;;9.73;5.15;;;8.20;75.60;;;;;;4937737;29;20396;-76
2022/12/01 16:13:34;;;;;;;;;;;8.10;75.50;;;;;;4938256;29;20034;-76
2022/12/01 16:16:00;;;;;;;7.82;5.20;;;8.10;75.60;;;;;;4922350;29;19926;-75
2022/12/01 16:18:32;;;;;;;13.50;5.63;;;8.10;75.60;;;;;;4937993;29;20070;-76
2022/12/01 16:21:04;;;;;;;7.90;4.70;;;8.00;75.90;;;;;;4937809;29;20024;-76
2022/12/01 16:23:31;;;;;;;7.80;4.63;;;7.90;76.00;;;;;;4937459;29;20031;-75
2022/12/01 16:25:57;;;;;;;9.63;6.63;;;7.90;75.80;;;;;;4920449;29;20031;-76
2022/12/01 16:28:34;;;;;;;10.88;6.05;;;7.80;76.00;;;;;;4917069;29;20084;-76
2022/12/01 16:31:00;;;;;;;12.35;6.57;;;7.80;76.10;;;;;;4919728;29;20074;-76
2022/12/01 16:33:27;;;;;;;8.82;5.45;;;7.70;76.10;;;;;;4934922;29;20031;-76
2022/12/01 16:35:54;;;;;;;7.38;4.65;;;7.70;76.30;;;;;;4924266;29;21231;-75
2022/12/01 16:38:22;;;;;;;11.55;6.07;;;7.70;76.00;;;;;;4940622;29;20039;-76
2022/12/01 16:40:50;;;;;;;9.30;6.05;;;7.60;76.30;;;;;;4940907;29;20499;-75
2022/12/01 16:43:23;;;;;;;11.23;6.05;;;7.50;76.40;;;;;;4923893;29;20387;-76
2022/12/01 16:45:51;;;;;;;11.18;6.75;;;7.50;76.40;;;;;;4940448;29;20056;-76
2022/12/01 16:48:19;;;;;;;9.63;5.85;;;7.50;76.30;;;;;;4931463;29;20024;-78
2022/12/01 16:50:48;;;;;;;9.35;6.68;;;7.50;76.40;;;;;;4924194;29;20055;-77
2022/12/01 16:53:14;;;;;;;13.70;6.70;;;7.40;76.70;;;;;;4925309;29;20460;-76
2022/12/01 16:55:48;;;;;;;11.57;4.93;;;7.40;76.40;;;;;;4939434;29;20044;-78
2022/12/01 16:58:16;;;;;;;10.55;4.78;;;7.30;76.30;;;;;;4921851;29;20055;-80
2022/12/01 17:00:42;;;;;;;10.07;4.40;;;7.30;76.60;;;;;;4940241;29;20869;-79
2022/12/01 17:03:11;;;;;;;9.45;5.00;;;7.20;76.60;;;;;;4933890;29;20032;-80
2022/12/01 17:05:37;;;;;;;8.15;4.63;;;7.20;76.60;;;;;;4932558;29;20483;-80
2022/12/01 17:08:03;;;;;;;8.68;5.72;;;7.20;76.50;;;;;;4925872;29;20063;-80
2022/12/01 17:10:29;;;;;;;7.68;5.00;;;7.20;76.50;;;;;;4927073;29;20039;-80
2022/12/01 17:12:55;;;;;;;9.38;5.85;;;7.20;76.60;;;;;;4933986;29;20035;-80
2022/12/01 17:15:21;;;;;;;6.22;4.22;;;7.20;76.40;;;;;;4932092;29;20316;-80
2022/12/01 17:17:47;;;;;;;8.77;4.72;;;7.20;76.30;;;;;;4933170;29;20166;-80
2022/12/01 17:20:12;;;;;;;8.60;4.30;;;7.10;76.50;;;;;;4929030;29;20031;-81
2022/12/01 17:22:38;;;;;;;6.30;3.95;;;7.10;76.70;;;;;;4926493;29;20028;-80
2022/12/01 17:25:05;;;;;;;11.32;5.05;;;7.00;76.70;;;;;;4929870;29;20027;-81
2022/12/01 17:27:31;;;;;;;12.20;6.00;;;7.00;76.70;;;;;;4939689;29;20028;-81
2022/12/01 17:30:00;;;;;;;16.65;7.95;;;7.00;76.60;;;;;;4922351;29;20476;-83
2022/12/01 17:32:26;;;;;;;16.40;8.65;;;7.00;76.60;;;;;;4921688;29;20054;-82
2022/12/01 17:34:52;;;;;;;11.63;7.57;;;7.00;76.50;;;;;;4939922;29;20051;-81
2022/12/01 17:37:17;;;;;;;14.93;6.90;;;7.00;76.40;;;;;;4922148;29;20024;-81
2022/12/01 17:39:43;;;;;;;11.15;5.05;;;7.00;76.50;;;;;;4939774;29;20059;-82
2022/12/01 17:42:08;;;;;;;7.97;4.82;;;6.90;76.50;;;;;;4939235;29;20103;-82
2022/12/01 17:44:34;;;;;;;8.10;5.53;;;7.00;76.50;;;;;;4876272;29;20433;-81
2022/12/01 17:47:00;;;;;;;6.25;4.00;;;6.90;76.60;;;;;;4937387;29;20452;-82
2022/12/01 17:49:25;;;;;;;7.50;4.97;;;6.90;76.60;;;;;;4908536;29;20059;-81
2022/12/01 17:51:51;;;;;;;8.18;4.40;;;6.90;76.50;;;;;;4910656;29;20403;-81
2022/12/01 17:54:17;;;;;;;8.82;5.45;;;6.90;76.50;;;;;;4887191;29;20028;-81
2022/12/01 17:56:42;;;;;;;12.75;6.43;;;6.80;76.50;;;;;;4930121;29;20031;-82
2022/12/01 17:59:08;;;;;;;17.73;8.80;;;6.80;76.40;;;;;;4912078;29;20039;-82
2022/12/01 18:01:33;;;;;;;19.25;10.25;;;6.80;76.40;;;;;;4929309;29;20040;-82
2022/12/01 18:04:00;;;;;;;16.83;10.45;;;6.70;76.30;;;;;;4930181;29;20662;-83
2022/12/01 18:06:28;;;;;;;17.80;9.15;;;6.70;76.60;;;;;;4915238;29;20039;-80
2022/12/01 18:08:56;;;;;;;23.00;11.40;;;6.70;76.60;;;;;;4911390;29;20032;-85
2022/12/01 18:11:22;;;;;;;20.95;12.40;;;6.70;76.80;;;;;;4918079;29;20024;-82
2022/12/01 18:13:50;;;;;;;22.23;12.30;;;6.70;76.70;;;;;;4929296;29;20024;-80
2022/12/01 18:16:20;;;;;;;11.43;8.27;;;6.70;76.70;;;;;;4930293;29;20027;-80
2022/12/01 18:18:46;;;;;;;10.95;6.43;;;6.70;76.60;;;;;;4936882;29;20057;-78
2022/12/01 18:21:13;;;;;;;12.75;7.00;;;6.70;76.70;;;;;;4939447;29;20023;-81
2022/12/01 18:23:46;;;;;;;11.48;6.20;;;6.70;76.70;;;;;;4925876;29;20114;-83
2022/12/01 18:26:12;;;;;;;11.85;6.00;;;6.70;76.70;;;;;;4936955;29;20476;-85
2022/12/01 18:28:38;;;;;;;11.75;6.45;;;6.70;76.70;;;;;;4902876;29;20054;-84
2022/12/01 18:31:06;;;;;;;11.55;6.38;;;6.70;76.70;;;;;;4929882;29;20486;-84
2022/12/01 18:33:33;;;;;;;11.80;7.00;;;6.60;76.60;;;;;;4923910;29;20040;-85
2022/12/01 18:35:59;;;;;;;14.40;8.93;;;6.60;76.50;;;;;;4922255;29;20503;-85
2022/12/01 18:38:26;;;;;;;19.60;9.65;;;6.50;76.60;;;;;;4919693;29;20062;-84
2022/12/01 18:40:57;;;;;;;18.23;9.32;;;6.50;76.50;;;;;;4903073;29;20056;-81
2022/12/01 18:43:22;;;;;;;13.75;7.78;;;6.40;76.60;;;;;;4904459;29;20032;-81